createdAt,value
2023-03-21T00:00:43.934Z,38.08
2023-03-21T00:03:11.269Z,20.92
2023-03-21T00:05:43.201Z,30.40
2023-03-21T00:08:10.351Z,34.47
2023-03-21T00:10:41.186Z,34.67
2023-03-21T00:13:15.411Z,38.22
2023-03-21T00:16:13.868Z,33.22
2023-03-21T00:18:48.712Z,36.63
2023-03-21T00:24:06.645Z,34.38
2023-03-21T00:26:34.049Z,34.08
2023-03-21T00:29:01.740Z,30.13
2023-03-21T00:31:28.712Z,32.13
2023-03-21T00:33:55.679Z,33.42
2023-03-21T00:36:26.247Z,32.00
2023-03-21T00:38:53.835Z,39.00
2023-03-21T00:41:35.032Z,31.10
2023-03-21T00:44:08.064Z,37.33
2023-03-21T00:46:47.035Z,37.70
2023-03-21T00:49:20.870Z,33.50
2023-03-21T00:51:51.764Z,35.20
2023-03-21T00:54:19.714Z,29.95
2023-03-21T00:56:46.716Z,24.25
2023-03-21T00:59:14.068Z,29.52
2023-03-21T01:01:41.108Z,24.27
2023-03-21T01:04:13.677Z,28.20
2023-03-21T01:06:43.156Z,34.72
2023-03-21T01:09:21.485Z,28.90
2023-03-21T01:11:49.980Z,26.90
2023-03-21T01:14:23.120Z,36.03
2023-03-21T01:16:54.346Z,29.63
2023-03-21T01:19:37.533Z,26.38
2023-03-21T01:22:12.067Z,34.78
2023-03-21T01:24:50.295Z,33.15
2023-03-21T01:27:20.360Z,24.42
2023-03-21T01:29:48.899Z,40.28
2023-03-21T01:32:16.853Z,28.52
2023-03-21T01:34:43.973Z,28.67
2023-03-21T01:37:11.057Z,23.40
2023-03-21T01:39:46.232Z,28.55
2023-03-21T01:42:14.331Z,27.70
2023-03-21T01:45:01.421Z,21.35
2023-03-21T01:47:45.782Z,25.83
2023-03-21T01:50:26.424Z,38.53
2023-03-21T01:53:02.702Z,20.92
2023-03-21T01:55:32.363Z,21.75
2023-03-21T01:58:14.218Z,33.83
2023-03-21T02:01:02.873Z,28.10
2023-03-21T02:03:50.293Z,24.27
2023-03-21T02:06:54.483Z,34.47
2023-03-21T02:09:46.744Z,37.13
2023-03-21T02:12:18.819Z,25.65
2023-03-21T02:14:49.285Z,19.90
2023-03-21T02:17:51.429Z,26.08
2023-03-21T02:21:06.770Z,29.20
2023-03-21T02:24:10.503Z,23.48
2023-03-21T02:26:42.892Z,31.05
2023-03-21T02:29:45.724Z,38.72
2023-03-21T02:32:38.817Z,37.97
2023-03-21T02:35:30.297Z,24.35
2023-03-21T02:38:01.485Z,30.50
2023-03-21T02:40:58.528Z,33.00
2023-03-21T02:46:09.869Z,33.10
2023-03-21T02:48:56.848Z,27.52
2023-03-21T02:51:27.767Z,33.38
2023-03-21T02:54:26.053Z,27.83
2023-03-21T02:56:50.700Z,26.98
2023-03-21T02:59:20.040Z,34.38
2023-03-21T03:01:47.614Z,25.00
2023-03-21T03:04:22.751Z,36.85
2023-03-21T03:10:02.811Z,28.88
2023-03-21T03:12:49.112Z,21.75
2023-03-21T03:15:33.580Z,24.70
2023-03-21T03:18:16.252Z,27.75
2023-03-21T03:21:08.394Z,31.08
2023-03-21T03:24:07.554Z,29.20
2023-03-21T03:26:39.905Z,22.33
2023-03-21T03:29:12.614Z,29.83
2023-03-21T03:31:46.283Z,28.45
2023-03-21T03:34:18.179Z,23.85
2023-03-21T03:36:51.836Z,27.45
2023-03-21T03:39:19.406Z,28.15
2023-03-21T03:42:15.433Z,24.48
2023-03-21T03:44:58.245Z,23.95
2023-03-21T03:48:02.643Z,31.77
2023-03-21T03:50:43.003Z,22.52
2023-03-21T03:53:28.647Z,24.73
2023-03-21T03:55:57.612Z,24.60
2023-03-21T03:58:39.492Z,28.20
2023-03-21T04:01:12.589Z,26.95
2023-03-21T04:03:49.849Z,26.27
2023-03-21T04:06:19.532Z,33.45
2023-03-21T04:08:49.015Z,18.85
2023-03-21T04:11:16.518Z,24.73
2023-03-21T04:13:48.538Z,20.67
2023-03-21T04:16:21.305Z,29.63
2023-03-21T04:18:48.746Z,26.75
2023-03-21T04:21:18.908Z,30.90
2023-03-21T04:23:46.025Z,33.42
2023-03-21T04:26:13.140Z,35.63
2023-03-21T04:28:49.421Z,27.92
2023-03-21T04:31:37.295Z,27.02
2023-03-21T04:34:12.769Z,27.45
2023-03-21T04:36:46.384Z,38.05
2023-03-21T04:39:15.137Z,22.85
2023-03-21T04:41:46.839Z,22.30
2023-03-21T04:44:15.948Z,26.38
2023-03-21T04:46:43.602Z,27.50
2023-03-21T04:49:11.990Z,24.92
2023-03-21T04:51:39.675Z,30.05
2023-03-21T04:56:38.212Z,23.00
2023-03-21T04:59:11.757Z,21.13
2023-03-21T05:01:41.374Z,21.42
2023-03-21T05:04:10.827Z,29.45
2023-03-21T05:06:39.474Z,19.50
2023-03-21T05:09:07.249Z,32.13
2023-03-21T05:11:38.100Z,22.65
2023-03-21T05:14:08.041Z,24.27
2023-03-21T05:16:36.547Z,37.38
2023-03-21T05:19:04.058Z,27.30
2023-03-21T05:21:41.680Z,41.33
2023-03-21T05:24:16.384Z,25.85
2023-03-21T05:26:44.560Z,34.88
2023-03-21T05:29:18.463Z,31.15
2023-03-21T05:31:52.183Z,34.90
2023-03-21T05:34:20.512Z,32.45
2023-03-21T05:36:47.962Z,23.77
2023-03-21T05:39:14.976Z,32.17
2023-03-21T05:41:50.869Z,26.45
2023-03-21T05:44:17.941Z,31.85
2023-03-21T05:46:45.140Z,33.22
2023-03-21T05:49:13.067Z,32.40
2023-03-21T05:51:41.255Z,45.90
2023-03-21T05:54:08.383Z,39.92
2023-03-21T05:56:35.476Z,37.42
2023-03-21T05:59:05.352Z,31.00
2023-03-21T06:01:37.629Z,38.22
2023-03-21T06:04:13.377Z,31.75
2023-03-21T06:06:40.890Z,27.42
2023-03-21T06:09:08.865Z,32.40
2023-03-21T06:11:37.967Z,34.63
2023-03-21T06:14:28.020Z,26.80
2023-03-21T06:17:16.074Z,34.05
2023-03-21T06:19:48.584Z,36.28
2023-03-21T06:22:32.363Z,38.85
2023-03-21T06:25:01.128Z,37.88
2023-03-21T06:27:28.889Z,34.10
2023-03-21T06:29:58.143Z,44.22
2023-03-21T06:32:27.428Z,42.97
2023-03-21T06:35:06.732Z,43.13
2023-03-21T06:37:34.185Z,41.20
2023-03-21T06:40:01.362Z,41.25
2023-03-21T06:42:29.631Z,37.33
2023-03-21T06:45:01.874Z,44.38
2023-03-21T06:47:29.314Z,51.30
2023-03-21T06:49:56.725Z,37.58
2023-03-21T06:52:23.932Z,36.05
2023-03-21T06:54:53.629Z,48.20
2023-03-21T06:57:22.150Z,39.45
2023-03-21T06:59:50.904Z,42.67
2023-03-21T07:02:23.540Z,40.50
2023-03-21T07:05:11.335Z,29.83
2023-03-21T07:07:39.551Z,37.92
2023-03-21T07:10:09.476Z,50.20
2023-03-21T07:12:45.401Z,50.83
2023-03-21T07:15:17.582Z,49.58
2023-03-21T07:17:46.245Z,39.30
2023-03-21T07:20:13.467Z,53.47
2023-03-21T07:22:41.143Z,41.08
2023-03-21T07:25:08.667Z,49.13
2023-03-21T07:27:41.394Z,54.70
2023-03-21T07:30:10.504Z,24.85
2023-03-21T07:32:38.169Z,44.22
2023-03-21T07:35:11.718Z,47.20
2023-03-21T07:37:39.856Z,43.35
2023-03-21T07:40:12.607Z,37.22
2023-03-21T07:42:41.403Z,54.45
2023-03-21T07:45:11.575Z,46.38
2023-03-21T07:47:38.629Z,41.03
2023-03-21T07:50:06.433Z,44.47
2023-03-21T07:52:33.556Z,42.55
2023-03-21T07:55:00.512Z,49.25
2023-03-21T07:57:27.663Z,31.35
2023-03-21T07:59:54.642Z,45.10
2023-03-21T08:02:21.718Z,39.20
2023-03-21T08:04:48.862Z,46.53
2023-03-21T08:07:15.939Z,47.40
2023-03-21T08:09:45.813Z,47.38
2023-03-21T08:12:12.831Z,45.50
2023-03-21T08:14:39.896Z,38.08
2023-03-21T08:17:09.605Z,41.60
2023-03-21T08:19:37.686Z,43.33
2023-03-21T08:22:07.035Z,48.97
2023-03-21T08:24:34.469Z,50.90
2023-03-21T08:27:02.461Z,42.28
2023-03-21T08:29:29.558Z,61.55
2023-03-21T08:31:56.677Z,35.30
2023-03-21T08:34:24.008Z,49.22
2023-03-21T08:36:51.001Z,48.70
2023-03-21T08:39:18.242Z,57.35
2023-03-21T08:41:45.451Z,49.95
2023-03-21T08:44:12.988Z,49.97
2023-03-21T08:46:40.093Z,48.42
2023-03-21T08:49:07.144Z,48.50
2023-03-21T08:51:34.253Z,33.22
2023-03-21T08:54:01.445Z,54.08
2023-03-21T08:56:28.496Z,61.50
2023-03-21T08:58:55.509Z,51.00
2023-03-21T09:01:22.574Z,44.92
2023-03-21T09:03:49.610Z,44.15
2023-03-21T09:06:17.524Z,42.85
2023-03-21T09:08:46.432Z,47.47
2023-03-21T09:11:14.577Z,36.20
2023-03-21T09:13:41.607Z,44.67
2023-03-21T09:16:08.854Z,38.97
2023-03-21T09:18:45.476Z,47.80
2023-03-21T09:21:13.603Z,44.33
2023-03-21T09:23:41.655Z,55.65
2023-03-21T09:26:09.866Z,49.20
2023-03-21T09:28:40.694Z,49.38
2023-03-21T09:31:11.463Z,46.70
2023-03-21T09:33:42.541Z,61.42
2023-03-21T09:36:21.953Z,48.53
2023-03-21T09:38:50.189Z,46.17
2023-03-21T09:41:35.458Z,48.80
2023-03-21T09:44:23.004Z,52.08
2023-03-21T09:47:07.099Z,62.65
2023-03-21T09:49:48.612Z,51.35
2023-03-21T09:52:25.875Z,44.75
2023-03-21T09:54:55.832Z,47.33
2023-03-21T09:57:41.966Z,40.33
2023-03-21T10:00:23.233Z,50.10
2023-03-21T10:02:55.509Z,39.92
2023-03-21T10:05:27.179Z,56.97
2023-03-21T10:07:59.905Z,51.22
2023-03-21T10:10:29.907Z,41.70
2023-03-21T10:12:56.891Z,40.03
2023-03-21T10:15:26.337Z,43.97
2023-03-21T10:18:01.922Z,50.05
2023-03-21T10:20:33.540Z,52.28
2023-03-21T10:23:04.735Z,58.75
2023-03-21T10:25:33.846Z,48.65
2023-03-21T10:28:03.109Z,37.47
2023-03-21T10:30:37.394Z,42.95
2023-03-21T10:33:09.724Z,41.90
2023-03-21T10:35:40.343Z,33.15
2023-03-21T10:38:15.834Z,31.52
2023-03-21T10:40:42.936Z,42.70
2023-03-21T10:43:20.678Z,28.27
2023-03-21T10:45:48.639Z,36.10
2023-03-21T10:48:16.079Z,36.65
2023-03-21T10:50:47.060Z,36.35
2023-03-21T10:53:31.948Z,33.22
2023-03-21T10:56:01.611Z,38.53
2023-03-21T10:58:34.951Z,46.65
2023-03-21T11:01:05.174Z,29.67
2023-03-21T11:03:37.041Z,35.10
2023-03-21T11:06:32.597Z,38.45
2023-03-21T11:09:17.057Z,33.95
2023-03-21T11:12:23.857Z,42.05
2023-03-21T11:14:53.856Z,68.50
2023-03-21T11:17:28.387Z,39.25
2023-03-21T11:20:05.794Z,44.95
2023-03-21T11:22:42.554Z,45.67
2023-03-21T11:25:22.413Z,46.97
2023-03-21T11:27:55.096Z,47.80
2023-03-21T11:30:25.190Z,61.83
2023-03-21T11:32:56.653Z,44.78
2023-03-21T11:35:34.459Z,51.58
2023-03-21T11:38:01.508Z,38.25
2023-03-21T11:40:32.003Z,41.10
2023-03-21T11:42:59.963Z,50.85
2023-03-21T11:45:34.742Z,42.35
2023-03-21T11:48:13.551Z,39.45
2023-03-21T11:50:45.617Z,36.55
2023-03-21T11:53:41.862Z,38.35
2023-03-21T11:56:28.840Z,36.10
2023-03-21T11:59:20.237Z,45.50
2023-03-21T12:01:53.307Z,34.13
2023-03-21T12:04:42.028Z,52.05
2023-03-21T12:07:30.377Z,39.63
2023-03-21T12:10:06.670Z,30.98
2023-03-21T12:13:17.183Z,37.55
2023-03-21T12:15:53.790Z,56.28
2023-03-21T12:18:27.996Z,36.58
2023-03-21T12:21:00.744Z,39.70
2023-03-21T12:23:33.167Z,42.13
2023-03-21T12:26:23.494Z,41.30
2023-03-21T12:29:08.580Z,41.90
2023-03-21T12:32:12.780Z,36.33
2023-03-21T12:34:58.194Z,37.63
2023-03-21T12:37:48.648Z,34.75
2023-03-21T12:40:54.485Z,47.10
2023-03-21T12:43:29.655Z,37.63
2023-03-21T12:46:03.575Z,32.85
2023-03-21T12:48:36.748Z,40.83
2023-03-21T12:51:08.604Z,64.95
2023-03-21T12:53:59.327Z,42.33
2023-03-21T12:56:34.404Z,34.97
2023-03-21T12:59:26.179Z,34.83
2023-03-21T13:01:58.847Z,30.00
2023-03-21T13:04:39.339Z,45.25
2023-03-21T13:07:11.622Z,38.28
2023-03-21T13:09:41.341Z,35.63
2023-03-21T13:12:43.467Z,41.53
2023-03-21T13:15:44.494Z,31.50
2023-03-21T13:18:33.158Z,31.55
2023-03-21T13:21:34.731Z,23.85
2023-03-21T13:24:37.571Z,25.55
2023-03-21T13:27:14.935Z,37.95
2023-03-21T13:29:51.898Z,28.85
2023-03-21T13:32:34.192Z,39.08
2023-03-21T13:35:09.882Z,41.72
2023-03-21T13:37:41.267Z,35.53
2023-03-21T13:40:22.050Z,43.92
2023-03-21T13:42:55.539Z,39.88
2023-03-21T13:45:45.322Z,43.42
2023-03-21T13:48:30.507Z,41.05
2023-03-21T13:51:03.654Z,40.05
2023-03-21T13:53:38.139Z,30.30
2023-03-21T13:56:12.571Z,32.17
2023-03-21T13:58:51.256Z,43.60
2023-03-21T14:01:33.186Z,35.10
2023-03-21T14:04:24.026Z,45.63
2023-03-21T14:07:22.021Z,48.45
2023-03-21T14:09:59.856Z,49.83
2023-03-21T14:12:30.062Z,46.17
2023-03-21T14:15:15.929Z,44.63
2023-03-21T14:17:57.659Z,45.83
2023-03-21T14:20:31.267Z,44.67
2023-03-21T14:22:58.631Z,59.85
2023-03-21T14:25:40.779Z,60.10
2023-03-21T14:28:24.235Z,52.60
2023-03-21T14:31:00.546Z,45.58
2023-03-21T14:33:39.612Z,45.90
2023-03-21T14:36:19.700Z,50.63
2023-03-21T14:39:17.926Z,46.03
2023-03-21T14:41:50.954Z,46.30
2023-03-21T14:44:38.071Z,47.97
2023-03-21T14:47:20.905Z,47.17
2023-03-21T14:49:49.872Z,51.72
2023-03-21T14:52:24.034Z,61.38
2023-03-21T14:54:52.429Z,53.47
2023-03-21T14:57:23.007Z,50.58
2023-03-21T14:59:54.394Z,40.45
2023-03-21T15:02:28.751Z,44.50
2023-03-21T15:04:58.418Z,43.03
2023-03-21T15:07:29.757Z,43.17
2023-03-21T15:10:01.178Z,33.38
2023-03-21T15:12:28.193Z,40.80
2023-03-21T15:14:55.782Z,41.05
2023-03-21T15:17:24.774Z,41.85
2023-03-21T15:19:51.841Z,59.53
2023-03-21T15:22:24.686Z,48.47
2023-03-21T15:24:56.036Z,53.95
2023-03-21T15:27:25.857Z,49.25
2023-03-21T15:29:57.158Z,62.55
2023-03-21T15:32:27.533Z,66.55
2023-03-21T15:34:56.748Z,64.45
2023-03-21T15:37:27.245Z,57.90
2023-03-21T15:40:06.353Z,58.67
2023-03-21T15:42:41.239Z,62.38
2023-03-21T15:45:23.580Z,58.13
2023-03-21T15:48:27.170Z,59.45
2023-03-21T15:51:21.200Z,59.10
2023-03-21T15:53:51.270Z,53.60
2023-03-21T15:56:21.632Z,55.40
2023-03-21T15:58:51.732Z,55.70
2023-03-21T16:01:22.094Z,59.47
2023-03-21T16:03:56.531Z,59.05
2023-03-21T16:06:33.617Z,66.45
2023-03-21T16:09:14.856Z,65.05
2023-03-21T16:11:44.516Z,62.83
2023-03-21T16:14:11.579Z,59.65
2023-03-21T16:16:38.650Z,64.25
2023-03-21T16:19:07.409Z,60.80
2023-03-21T16:21:38.230Z,53.80
2023-03-21T16:24:06.738Z,63.63
2023-03-21T16:26:37.558Z,56.53
2023-03-21T16:29:06.052Z,49.58
2023-03-21T16:31:35.011Z,53.65
2023-03-21T16:34:02.206Z,49.85
2023-03-21T16:36:32.980Z,63.38
2023-03-21T16:39:00.626Z,58.17
2023-03-21T16:41:28.405Z,62.63
2023-03-21T16:43:55.599Z,63.60
2023-03-21T16:46:25.594Z,56.78
2023-03-21T16:48:54.955Z,62.58
2023-03-21T16:51:27.149Z,74.32
2023-03-21T16:53:54.381Z,64.50
2023-03-21T16:56:27.337Z,67.65
2023-03-21T16:58:55.133Z,64.35
2023-03-21T17:01:27.581Z,54.08
2023-03-21T17:03:54.646Z,70.10
2023-03-21T17:06:24.619Z,55.17
2023-03-21T17:08:52.850Z,59.67
2023-03-21T17:11:21.993Z,66.85
2023-03-21T17:13:54.462Z,63.30
2023-03-21T17:16:26.742Z,60.33
2023-03-21T17:18:54.115Z,79.75
2023-03-21T17:21:24.295Z,73.30
2023-03-21T17:23:52.030Z,82.15
2023-03-21T17:26:25.980Z,67.22
2023-03-21T17:28:55.373Z,67.88
2023-03-21T17:31:25.486Z,62.25
2023-03-21T17:33:52.617Z,59.58
2023-03-21T17:36:26.617Z,47.08
2023-03-21T17:38:53.834Z,43.58
2023-03-21T17:41:22.340Z,50.28
2023-03-21T17:43:51.055Z,53.78
2023-03-21T17:46:22.404Z,54.42
2023-03-21T17:48:50.432Z,58.65
2023-03-21T17:51:17.951Z,55.05
2023-03-21T17:53:46.770Z,52.63
2023-03-21T17:56:16.590Z,51.30
2023-03-21T17:58:44.074Z,56.22
2023-03-21T18:01:11.564Z,59.42
2023-03-21T18:03:38.651Z,71.15
2023-03-21T18:06:06.665Z,62.63
2023-03-21T18:08:33.888Z,70.60
2023-03-21T18:11:01.054Z,64.43
2023-03-21T18:13:28.099Z,47.47
2023-03-21T18:15:56.377Z,76.78
2023-03-21T18:18:23.614Z,58.15
2023-03-21T18:20:53.488Z,50.60
2023-03-21T18:23:21.571Z,54.10
2023-03-21T18:25:49.705Z,57.85
2023-03-21T18:28:20.542Z,61.03
2023-03-21T18:33:38.321Z,61.03
2023-03-21T18:36:07.805Z,50.10
2023-03-21T18:38:36.561Z,52.40
2023-03-21T18:41:03.719Z,56.47
2023-03-21T18:46:18.193Z,59.03
2023-03-21T18:48:45.136Z,41.92
2023-03-21T18:51:12.530Z,43.65
2023-03-21T18:53:39.555Z,48.72
2023-03-21T18:56:10.210Z,49.15
2023-03-21T18:58:37.761Z,45.75
2023-03-21T19:01:05.305Z,51.47
2023-03-21T19:03:37.112Z,50.58
2023-03-21T19:06:06.566Z,39.17
2023-03-21T19:08:36.968Z,42.90
2023-03-21T19:11:06.608Z,41.33
2023-03-21T19:13:34.608Z,44.22
2023-03-21T19:16:02.670Z,40.22
2023-03-21T19:21:19.980Z,35.55
2023-03-21T19:24:22.875Z,38.58
2023-03-21T19:26:35.034Z,49.65
2023-03-21T19:29:02.080Z,33.88
2023-03-21T19:31:29.166Z,44.33
2023-03-21T19:33:57.162Z,38.50
2023-03-21T19:36:25.983Z,43.30
2023-03-21T19:38:53.691Z,33.17
2023-03-21T19:41:20.762Z,32.55
2023-03-21T19:43:55.011Z,44.92
2023-03-21T19:46:25.571Z,40.83
2023-03-21T19:48:56.950Z,32.92
2023-03-21T19:51:29.259Z,38.13
2023-03-21T19:54:04.245Z,42.88
2023-03-21T19:56:31.934Z,28.23
2023-03-21T19:58:59.991Z,38.25
2023-03-21T20:01:27.738Z,34.85
2023-03-21T20:03:55.329Z,37.05
2023-03-21T20:06:24.023Z,30.95
2023-03-21T20:11:39.443Z,24.58
2023-03-21T20:14:06.600Z,28.65
2023-03-21T20:16:35.529Z,26.48
2023-03-21T20:19:09.198Z,27.55
2023-03-21T20:21:48.232Z,30.05
2023-03-21T20:24:17.925Z,23.33
2023-03-21T20:26:46.005Z,27.20
2023-03-21T20:30:07.112Z,30.90
2023-03-21T20:32:00.389Z,29.23
2023-03-21T20:34:30.287Z,30.63
2023-03-21T20:36:58.527Z,30.27
2023-03-21T20:39:27.934Z,30.08
2023-03-21T20:41:55.681Z,24.08
2023-03-21T20:47:10.037Z,30.58
2023-03-21T20:49:37.126Z,32.35
2023-03-21T20:54:54.212Z,47.83
2023-03-21T20:57:21.300Z,39.08
2023-03-21T20:59:48.285Z,37.10
2023-03-21T21:02:15.876Z,37.55
2023-03-21T21:04:59.973Z,33.78
2023-03-21T21:07:29.893Z,33.85
2023-03-21T21:09:57.845Z,38.25
2023-03-21T21:12:27.807Z,33.38
2023-03-21T21:14:57.800Z,36.97
2023-03-21T21:20:17.343Z,48.40
2023-03-21T21:22:59.046Z,29.50
2023-03-21T21:25:29.279Z,31.35
2023-03-21T21:27:56.347Z,31.77
2023-03-21T21:30:23.749Z,35.97
2023-03-21T21:32:50.949Z,36.42
2023-03-21T21:35:19.728Z,41.60
2023-03-21T21:37:46.740Z,33.72
2023-03-21T21:40:20.593Z,36.53
2023-03-21T21:42:47.934Z,32.30
2023-03-21T21:45:15.891Z,36.25
2023-03-21T21:47:44.565Z,35.47
2023-03-21T21:50:11.715Z,41.97
2023-03-21T21:52:38.781Z,38.67
2023-03-21T21:55:06.647Z,35.33
2023-03-21T21:57:34.892Z,36.80
2023-03-21T22:00:06.998Z,36.47
2023-03-21T22:02:41.569Z,37.47
2023-03-21T22:05:09.635Z,30.52
2023-03-21T22:07:38.178Z,35.97
2023-03-21T22:10:05.810Z,42.28
2023-03-21T22:12:32.872Z,35.50
2023-03-21T22:14:59.834Z,38.60
2023-03-21T22:17:26.843Z,39.05
2023-03-21T22:20:05.073Z,30.88
2023-03-21T22:22:34.611Z,31.17
2023-03-21T22:25:02.514Z,37.33
2023-03-21T22:27:29.579Z,33.55
2023-03-21T22:29:56.728Z,40.97
2023-03-21T22:32:23.921Z,30.15
2023-03-21T22:34:51.309Z,32.97
2023-03-21T22:37:18.229Z,32.63
2023-03-21T22:39:45.510Z,26.42
2023-03-21T22:42:12.491Z,28.83
2023-03-21T22:44:39.507Z,30.88
2023-03-21T22:47:09.246Z,28.80
2023-03-21T22:49:37.013Z,28.92
2023-03-21T22:52:05.744Z,37.65
2023-03-21T22:54:33.288Z,25.30
2023-03-21T22:57:00.768Z,27.50
2023-03-21T22:59:28.357Z,30.20
2023-03-21T23:01:55.751Z,22.48
2023-03-21T23:04:23.787Z,24.25
2023-03-21T23:06:50.858Z,27.02
2023-03-21T23:09:18.277Z,25.33
2023-03-21T23:11:49.138Z,29.23
2023-03-21T23:14:17.615Z,36.00
2023-03-21T23:16:45.085Z,23.98
2023-03-21T23:19:12.349Z,26.20
2023-03-21T23:21:40.217Z,26.95
2023-03-21T23:24:07.719Z,20.98
2023-03-21T23:26:34.803Z,32.90
2023-03-21T23:29:01.919Z,23.88
2023-03-21T23:31:28.990Z,30.67
2023-03-21T23:33:58.970Z,27.88
2023-03-21T23:36:26.558Z,24.98
2023-03-21T23:38:53.644Z,23.08
2023-03-21T23:41:23.136Z,29.40
2023-03-21T23:43:50.485Z,26.45
2023-03-21T23:46:19.146Z,26.08
2023-03-21T23:48:47.018Z,23.48
2023-03-21T23:51:16.759Z,28.52
2023-03-21T23:53:45.388Z,32.22
2023-03-21T23:56:13.752Z,27.98
2023-03-21T23:58:40.810Z,33.58
